Upington, Upington Airport (FAUP)

NameUpington Airport
CityUpington
CountrySouth Africa
ICAOFAUP
IATAUTN
Altitude848 m
CoordinatesGoogle Map
Live Air TrafficLiveATC.net
METARFAUP 251700Z 16003KT 9999 FEW040 FEW050CB 22/13 Q1017 NOSIG
2020-04-25 17:00:00 Wind: South-Southeast (160°) 1.54 m/s - Visibility: > 10000 m - Temperature: 22 °C - Dew point: 13 °C - Humidity: 56.8% - Pressure: 1017 hPa

Sorry, no flights used the airport in this database.